Time;durP1;ratioP1;P1;durP2;ratioP2;P2;SDS_P1;SDS_P2;PMS_P1;PMS_P2;Temp;Humidity;BMP_temperature;BMP_pressure;BME280_temperature;BME280_humidity;BME280_pressure;Samples;Min_cycle;Max_cycle;Signal;HPM_P1;HPM_P2
2021/08/13 00:01:45;;;;;;;17.27;8.93;;;;;;;17.56;100.00;94330.91;5076184;28;20211;-76
2021/08/13 00:04:12;;;;;;;19.67;8.80;;;;;;;17.58;100.00;94330.66;5076316;28;20223;-76
2021/08/13 00:06:40;;;;;;;13.40;8.52;;;;;;;17.62;100.00;94334.47;5076073;28;20632;-78
2021/08/13 00:09:07;;;;;;;16.10;8.70;;;;;;;17.52;100.00;94342.97;5076162;28;20716;-77
2021/08/13 00:11:35;;;;;;;14.00;8.18;;;;;;;17.55;100.00;94341.69;5075994;28;20561;-77
2021/08/13 00:14:02;;;;;;;17.30;8.50;;;;;;;17.65;100.00;94346.41;5076290;28;20225;-76
2021/08/13 00:16:30;;;;;;;16.92;8.65;;;;;;;17.50;100.00;94346.84;5076151;28;20325;-76
2021/08/13 00:18:56;;;;;;;13.13;8.23;;;;;;;17.33;100.00;94347.53;5076115;28;20281;-76
2021/08/13 00:21:23;;;;;;;12.73;8.55;;;;;;;17.15;100.00;94348.44;5076036;28;20208;-76
2021/08/13 00:23:49;;;;;;;15.20;8.18;;;;;;;17.01;100.00;94355.72;5075299;28;20229;-76
2021/08/13 00:26:16;;;;;;;21.45;9.02;;;;;;;17.00;100.00;94359.41;5075699;28;20194;-76
2021/08/13 00:28:42;;;;;;;16.50;9.40;;;;;;;16.98;100.00;94356.19;5075808;28;20205;-76
2021/08/13 00:31:09;;;;;;;15.13;9.30;;;;;;;17.01;100.00;94357.56;5075884;28;20531;-75
2021/08/13 00:33:37;;;;;;;15.75;8.93;;;;;;;17.02;100.00;94352.06;5075858;28;20214;-76
2021/08/13 00:36:03;;;;;;;17.60;9.38;;;;;;;17.29;100.00;94353.50;5075629;28;20200;-76
2021/08/13 00:38:30;;;;;;;14.77;8.50;;;;;;;17.43;100.00;94346.16;5075643;28;20206;-77
2021/08/13 00:40:56;;;;;;;13.43;8.18;;;;;;;17.47;100.00;94342.03;5075544;28;20210;-76
2021/08/13 00:43:23;;;;;;;14.85;9.38;;;;;;;17.52;100.00;94344.78;5075675;28;20209;-77
2021/08/13 00:45:50;;;;;;;15.85;8.80;;;;;;;17.70;100.00;94346.50;5074515;28;20234;-76
2021/08/13 00:48:16;;;;;;;16.08;8.25;;;;;;;17.70;100.00;94354.44;5074315;28;20210;-76
2021/08/13 00:50:45;;;;;;;13.88;8.43;;;;;;;17.62;100.00;94349.50;5074092;28;20566;-76
2021/08/13 00:53:11;;;;;;;17.27;8.68;;;;;;;17.54;100.00;94351.44;5073866;28;20202;-75
2021/08/13 00:55:38;;;;;;;15.52;9.02;;;;;;;17.52;100.00;94352.69;5074371;28;20213;-76
2021/08/13 00:58:07;;;;;;;17.40;7.88;;;;;;;17.54;100.00;94353.31;5074114;28;20199;-75
2021/08/13 01:00:33;;;;;;;18.77;8.95;;;;;;;17.63;100.00;94345.84;5074253;28;20209;-75
2021/08/13 01:03:00;;;;;;;14.95;8.77;;;;;;;17.58;100.00;94359.72;5074249;28;20199;-76
2021/08/13 01:05:27;;;;;;;16.52;8.65;;;;;;;17.46;100.00;94364.19;5073569;28;20461;-76
2021/08/13 01:07:55;;;;;;;16.45;8.80;;;;;;;17.42;100.00;94357.75;5073961;28;20206;-76
2021/08/13 01:10:24;;;;;;;20.05;8.15;;;;;;;17.44;100.00;94356.50;5074208;28;20203;-75
2021/08/13 01:12:57;;;;;;;15.55;9.35;;;;;;;17.43;100.00;94359.38;5074101;28;20207;-76
2021/08/13 01:15:24;;;;;;;13.50;8.45;;;;;;;17.46;100.00;94356.28;5073926;28;20202;-76
2021/08/13 01:17:56;;;;;;;12.98;8.35;;;;;;;17.51;100.00;94357.19;5073968;28;20195;-76
2021/08/13 01:20:37;;;;;;;12.98;8.63;;;;;;;17.45;100.00;94349.38;5073783;28;20534;-76
2021/08/13 01:23:15;;;;;;;15.07;8.55;;;;;;;17.39;100.00;94346.63;5073955;28;20205;-76
2021/08/13 01:25:45;;;;;;;16.90;8.20;;;;;;;17.41;100.00;94358.81;5073834;28;20253;-76
2021/08/13 01:28:26;;;;;;;17.25;9.00;;;;;;;17.33;100.00;94358.09;5073771;28;20199;-77
2021/08/13 01:30:52;;;;;;;15.73;8.50;;;;;;;17.30;100.00;94363.84;5073599;28;20199;-76
2021/08/13 01:33:22;;;;;;;16.13;8.55;;;;;;;17.44;100.00;94358.34;5073813;28;20222;-77
2021/08/13 01:35:52;;;;;;;14.18;8.13;;;;;;;17.60;100.00;94355.00;5073486;28;20546;-77
2021/08/13 01:38:22;;;;;;;21.80;8.73;;;;;;;17.54;100.00;94361.22;5073642;28;20214;-75
2021/08/13 01:40:50;;;;;;;14.00;8.32;;;;;;;17.54;100.00;94355.94;5073558;28;20202;-76
2021/08/13 01:43:19;;;;;;;14.88;8.20;;;;;;;17.46;100.00;94356.28;5073326;28;20697;-77
2021/08/13 01:45:46;;;;;;;15.73;8.37;;;;;;;17.38;100.00;94360.84;5037747;28;1033674;-77
2021/08/13 01:48:13;;;;;;;16.90;8.38;;;;;;;17.36;100.00;94359.47;5074515;28;20452;-77
2021/08/13 01:50:43;;;;;;;13.35;8.40;;;;;;;17.28;100.00;94357.97;5074388;28;20195;-76
2021/08/13 01:53:10;;;;;;;16.33;8.63;;;;;;;17.27;100.00;94353.72;5074196;28;20202;-76
2021/08/13 01:55:37;;;;;;;12.65;8.32;;;;;;;17.28;100.00;94355.31;5074153;28;20234;-76
2021/08/13 01:58:04;;;;;;;15.25;8.23;;;;;;;17.26;100.00;94357.41;5074132;28;20202;-76
2021/08/13 02:00:31;;;;;;;11.48;7.68;;;;;;;17.26;100.00;94352.13;5074195;28;20202;-76
2021/08/13 02:03:00;;;;;;;15.30;8.07;;;;;;;17.28;100.00;94347.41;5073362;28;20203;-76
2021/08/13 02:05:28;;;;;;;13.88;8.13;;;;;;;17.24;100.00;94348.13;5073979;28;20241;-76
2021/08/13 02:07:58;;;;;;;15.25;8.52;;;;;;;17.16;100.00;94350.03;5074093;28;20565;-76
2021/08/13 02:10:26;;;;;;;17.33;9.27;;;;;;;17.11;100.00;94354.41;5073866;28;20202;-76
2021/08/13 02:12:52;;;;;;;17.23;8.70;;;;;;;17.11;100.00;94363.09;5074731;28;20229;-76
2021/08/13 02:15:19;;;;;;;18.15;9.15;;;;;;;17.09;100.00;94362.53;5074224;28;20213;-76
2021/08/13 02:17:53;;;;;;;18.05;8.90;;;;;;;17.05;100.00;94361.34;5073934;28;20562;-76
2021/08/13 02:20:22;;;;;;;14.38;8.60;;;;;;;17.03;100.00;94358.16;5073802;28;20206;-76
2021/08/13 02:22:49;;;;;;;16.25;8.52;;;;;;;17.08;100.00;94349.56;5073615;28;20203;-76
2021/08/13 02:25:16;;;;;;;15.38;8.23;;;;;;;17.06;100.00;94356.91;5073759;28;20241;-76
2021/08/13 02:27:44;;;;;;;13.95;8.43;;;;;;;17.11;100.00;94346.47;5073251;28;20199;-76
2021/08/13 02:30:11;;;;;;;18.65;8.00;;;;;;;17.06;100.00;94347.16;5073508;28;20553;-76
2021/08/13 02:32:39;;;;;;;14.60;8.40;;;;;;;17.06;100.00;94355.06;5073433;28;20809;-76
2021/08/13 02:35:09;;;;;;;12.77;8.00;;;;;;;16.96;100.00;94347.69;5073492;28;20209;-76
2021/08/13 02:37:39;;;;;;;13.43;8.73;;;;;;;16.93;100.00;94342.88;5073342;28;20206;-76
2021/08/13 02:40:09;;;;;;;16.98;8.30;;;;;;;16.92;100.00;94356.28;5073470;28;20373;-76
2021/08/13 02:42:41;;;;;;;19.05;8.30;;;;;;;16.92;100.00;94345.72;5073259;28;20677;-75
2021/08/13 02:45:10;;;;;;;13.98;8.73;;;;;;;16.91;100.00;94347.56;5073036;28;20261;-76
2021/08/13 02:47:37;;;;;;;15.77;9.00;;;;;;;16.90;100.00;94347.78;5073268;28;20198;-76
2021/08/13 02:50:06;;;;;;;15.15;8.90;;;;;;;16.86;100.00;94342.16;5073593;28;20199;-75
2021/08/13 02:52:43;;;;;;;13.82;8.77;;;;;;;16.82;100.00;94338.34;5073271;28;20198;-75
2021/08/13 02:55:14;;;;;;;15.27;8.48;;;;;;;16.90;100.00;94337.25;5073284;28;20203;-76
2021/08/13 02:57:44;;;;;;;14.05;7.90;;;;;;;17.06;100.00;94331.31;5073171;28;20202;-75
2021/08/13 03:00:12;;;;;;;16.35;8.55;;;;;;;17.09;100.00;94335.34;5073048;28;20206;-75
2021/08/13 03:02:40;;;;;;;12.18;8.07;;;;;;;17.11;100.00;94343.84;5073030;28;20281;-76
2021/08/13 03:05:10;;;;;;;16.73;8.88;;;;;;;17.13;100.00;94345.19;5073074;28;20227;-75
2021/08/13 03:07:38;;;;;;;11.82;8.20;;;;;;;17.05;100.00;94342.09;5073455;28;20202;-76
2021/08/13 03:10:06;;;;;;;18.88;7.78;;;;;;;17.03;100.00;94342.31;5072968;28;20205;-77
2021/08/13 03:12:32;;;;;;;13.75;8.63;;;;;;;17.01;100.00;94345.19;5072993;28;20569;-75
2021/08/13 03:15:02;;;;;;;11.63;8.02;;;;;;;17.02;100.00;94336.25;5072675;28;20565;-75
2021/08/13 03:17:30;;;;;;;16.45;8.30;;;;;;;16.99;100.00;94343.81;5072253;28;20445;-76
2021/08/13 03:19:57;;;;;;;14.40;8.55;;;;;;;16.97;100.00;94353.78;5073018;28;20201;-77
2021/08/13 03:22:24;;;;;;;15.40;8.45;;;;;;;16.79;100.00;94344.88;5072961;28;20199;-77
2021/08/13 03:24:50;;;;;;;14.25;8.25;;;;;;;16.82;100.00;94346.28;5072853;28;20578;-76
2021/08/13 03:27:18;;;;;;;16.60;8.00;;;;;;;17.07;100.00;94342.66;5072717;28;20213;-76
2021/08/13 03:29:45;;;;;;;13.27;7.78;;;;;;;17.07;100.00;94337.38;5072640;28;20211;-75
2021/08/13 03:32:13;;;;;;;13.18;7.43;;;;;;;17.05;100.00;94339.47;5073135;28;20260;-76
2021/08/13 03:34:40;;;;;;;13.85;7.50;;;;;;;16.89;100.00;94336.44;5072774;28;20203;-76
2021/08/13 03:37:06;;;;;;;16.23;7.80;;;;;;;16.84;100.00;94336.28;5072589;28;20214;-77
2021/08/13 03:39:33;;;;;;;13.73;7.93;;;;;;;16.73;100.00;94344.97;5072819;28;20210;-76
2021/08/13 03:41:59;;;;;;;16.65;7.63;;;;;;;16.62;100.00;94338.59;5072566;28;20198;-77
2021/08/13 03:44:26;;;;;;;11.98;7.72;;;;;;;16.46;100.00;94340.06;5072584;28;20589;-77
2021/08/13 03:46:52;;;;;;;14.77;7.72;;;;;;;16.36;100.00;94347.69;5072813;28;20199;-76
2021/08/13 03:49:20;;;;;;;16.63;8.97;;;;;;;16.30;100.00;94340.66;5072201;28;20482;-75
2021/08/13 03:51:47;;;;;;;15.70;8.75;;;;;;;16.33;100.00;94348.13;5072604;28;20449;-76
2021/08/13 03:54:13;;;;;;;12.18;7.78;;;;;;;16.46;100.00;94343.47;5072396;28;20710;-76
2021/08/13 03:56:40;;;;;;;15.57;6.68;;;;;;;16.64;100.00;94344.50;5072307;28;20203;-76
2021/08/13 03:59:06;;;;;;;13.48;6.63;;;;;;;16.77;100.00;94344.31;5072848;28;20201;-76
2021/08/13 04:01:33;;;;;;;10.60;6.27;;;;;;;16.78;100.00;94345.09;5071833;28;20434;-76
2021/08/13 04:04:00;;;;;;;12.88;5.88;;;;;;;16.70;100.00;94342.78;5072635;28;20445;-76
2021/08/13 04:06:28;;;;;;;10.75;5.68;;;;;;;16.68;100.00;94337.72;5072292;28;20238;-76
2021/08/13 04:08:55;;;;;;;9.85;5.30;;;;;;;16.68;100.00;94339.56;5072282;28;20658;-75
2021/08/13 04:11:21;;;;;;;11.95;5.50;;;;;;;16.57;100.00;94343.75;5072230;28;20202;-76
2021/08/13 04:13:48;;;;;;;11.35;5.53;;;;;;;16.56;100.00;94348.22;5072438;28;20199;-76
2021/08/13 04:16:14;;;;;;;9.32;5.38;;;;;;;16.65;100.00;94348.72;5072481;28;20206;-77
2021/08/13 04:18:41;;;;;;;8.75;5.18;;;;;;;16.60;100.00;94341.50;5072333;28;20210;-76
2021/08/13 04:21:07;;;;;;;7.15;4.47;;;;;;;16.76;100.00;94347.16;5072363;28;20561;-77
2021/08/13 04:23:35;;;;;;;9.55;4.50;;;;;;;16.74;100.00;94349.22;5072119;28;20203;-76
2021/08/13 04:26:01;;;;;;;8.40;5.43;;;;;;;16.82;100.00;94348.91;5072115;28;20723;-76
2021/08/13 04:28:28;;;;;;;8.57;4.90;;;;;;;17.11;100.00;94355.19;5075541;28;20202;-76
2021/08/13 04:30:55;;;;;;;12.07;5.10;;;;;;;17.03;100.00;94358.16;5075938;28;20202;-76
2021/08/13 04:33:21;;;;;;;12.73;4.70;;;;;;;17.20;100.00;94353.03;5075918;28;20195;-76
2021/08/13 04:35:48;;;;;;;10.65;4.57;;;;;;;17.46;100.00;94353.63;5075770;28;20198;-76
2021/08/13 04:38:15;;;;;;;9.07;4.28;;;;;;;17.48;100.00;94360.28;5075571;28;20194;-76
2021/08/13 04:40:44;;;;;;;11.30;5.35;;;;;;;17.49;100.00;94363.75;5075840;28;20202;-76
2021/08/13 04:43:10;;;;;;;11.77;4.78;;;;;;;17.42;100.00;94355.94;5075724;28;20199;-76
2021/08/13 04:45:37;;;;;;;10.07;4.40;;;;;;;17.39;100.00;94366.94;5075424;28;20245;-76
2021/08/13 04:48:04;;;;;;;13.25;5.53;;;;;;;17.41;100.00;94369.34;5075619;28;20198;-75
2021/08/13 04:50:30;;;;;;;12.32;5.85;;;;;;;17.69;100.00;94366.03;5075457;28;20202;-76
2021/08/13 04:52:57;;;;;;;7.30;4.68;;;;;;;17.81;100.00;94366.84;5075365;28;20546;-77
2021/08/13 04:55:26;;;;;;;11.63;5.38;;;;;;;17.94;100.00;94366.63;5075557;28;20199;-76
2021/08/13 04:57:54;;;;;;;9.75;4.40;;;;;;;18.04;100.00;94373.97;5075463;28;20228;-76
2021/08/13 05:00:22;;;;;;;15.02;4.88;;;;;;;18.03;100.00;94372.34;5075557;28;20199;-77
2021/08/13 05:02:49;;;;;;;7.57;4.38;;;;;;;17.92;100.00;94378.47;5075292;28;20252;-76
2021/08/13 05:05:15;;;;;;;11.00;4.68;;;;;;;17.74;100.00;94377.53;5074973;28;20228;-75
2021/08/13 05:07:42;;;;;;;9.20;4.45;;;;;;;17.81;100.00;94376.59;5075164;28;20657;-76
2021/08/13 05:10:11;;;;;;;12.23;3.75;;;;;;;17.90;100.00;94378.69;5075226;28;20209;-75
2021/08/13 05:12:38;;;;;;;10.00;4.35;;;;;;;18.09;100.00;94378.56;5075062;28;20205;-76
2021/08/13 05:15:08;;;;;;;7.90;3.95;;;;;;;18.22;100.00;94393.34;5075080;28;20207;-76
2021/08/13 05:17:34;;;;;;;9.65;4.43;;;;;;;18.25;100.00;94395.53;5075028;28;20686;-76
2021/08/13 05:20:01;;;;;;;7.80;3.83;;;;;;;18.28;100.00;94395.06;5074920;28;20194;-76
2021/08/13 05:22:28;;;;;;;10.57;3.95;;;;;;;18.40;100.00;94397.69;5075119;28;20202;-75
2021/08/13 05:24:57;;;;;;;8.63;3.58;;;;;;;18.54;100.00;94395.59;5074892;28;20565;-76
2021/08/13 05:27:23;;;;;;;8.80;4.18;;;;;;;18.59;100.00;94391.22;5074823;28;20285;-75
2021/08/13 05:29:50;;;;;;;7.78;3.58;;;;;;;18.61;100.00;94394.41;5074830;28;20202;-75
2021/08/13 05:32:17;;;;;;;9.15;4.20;;;;;;;18.60;100.00;94389.34;5074716;28;20203;-77
2021/08/13 05:34:44;;;;;;;8.40;4.10;;;;;;;18.45;100.00;94385.41;5074554;28;20199;-76
2021/08/13 05:37:10;;;;;;;8.85;3.88;;;;;;;18.39;100.00;94390.81;5074275;28;20202;-76
2021/08/13 05:39:37;;;;;;;8.35;3.97;;;;;;;18.42;100.00;94390.34;5074000;28;20233;-77
2021/08/13 05:42:04;;;;;;;8.43;4.03;;;;;;;18.46;100.00;94392.28;5074565;28;20199;-76
2021/08/13 05:44:30;;;;;;;7.75;4.03;;;;;;;18.55;100.00;94389.25;5074211;28;20241;-76
2021/08/13 05:46:57;;;;;;;11.88;4.00;;;;;;;18.56;100.00;94391.69;5074284;28;20227;-76
2021/08/13 05:49:25;;;;;;;11.93;4.43;;;;;;;18.68;100.00;94394.28;5074524;28;20199;-76
2021/08/13 05:51:51;;;;;;;9.57;4.05;;;;;;;18.68;100.00;94394.28;5074133;28;20205;-76
2021/08/13 05:54:17;;;;;;;10.40;4.10;;;;;;;18.74;100.00;94397.84;5074229;28;20669;-76
2021/08/13 05:56:44;;;;;;;9.45;4.10;;;;;;;18.83;100.00;94386.66;5074262;28;20199;-75
2021/08/13 05:59:10;;;;;;;48.33;8.65;;;;;;;18.92;100.00;94383.63;5074274;28;20203;-75
2021/08/13 06:01:37;;;;;;;29.77;5.07;;;;;;;19.02;100.00;94394.41;5074574;28;20677;-76
2021/08/13 06:04:04;;;;;;;17.30;4.97;;;;;;;19.04;100.00;94385.19;5074379;28;20201;-76
2021/08/13 06:06:31;;;;;;;20.30;4.90;;;;;;;19.15;100.00;94382.72;5074166;28;20231;-76
2021/08/13 06:08:58;;;;;;;16.70;4.38;;;;;;;19.26;100.00;94378.41;5074123;28;20297;-76
2021/08/13 06:11:24;;;;;;;8.13;4.03;;;;;;;19.44;100.00;94380.03;5073988;28;20195;-76
2021/08/13 06:13:51;;;;;;;11.70;4.30;;;;;;;19.57;100.00;94383.16;5073798;28;20202;-77
2021/08/13 06:16:18;;;;;;;7.03;3.65;;;;;;;19.76;100.00;94398.81;5073883;28;20206;-77
2021/08/13 06:18:45;;;;;;;9.32;4.30;;;;;;;19.94;100.00;94403.06;5073859;28;20302;-77
2021/08/13 06:21:12;;;;;;;8.43;4.13;;;;;;;20.17;100.00;94407.38;5073639;28;20701;-76
2021/08/13 06:23:39;;;;;;;7.60;4.28;;;;;;;20.46;100.00;94407.19;5073939;28;20202;-76
2021/08/13 06:26:06;;;;;;;14.77;4.22;;;;;;;20.60;100.00;94408.44;5073562;28;20226;-75
2021/08/13 06:28:38;;;;;;;9.48;4.43;;;;;;;21.01;100.00;94398.28;5073112;28;20276;-76
2021/08/13 06:31:05;;;;;;;8.63;3.85;;;;;;;21.31;100.00;94397.00;5073370;28;20561;-76
2021/08/13 06:33:32;;;;;;;8.18;3.90;;;;;;;21.52;100.00;94398.00;5073363;28;20737;-76
2021/08/13 06:36:00;;;;;;;10.13;3.60;;;;;;;21.81;100.00;94406.44;5073556;28;20203;-76
2021/08/13 06:38:26;;;;;;;10.68;3.60;;;;;;;22.07;100.00;94396.00;5073323;28;20209;-76
2021/08/13 06:40:54;;;;;;;8.40;3.05;;;;;;;22.16;100.00;94397.09;5073387;28;20210;-75
2021/08/13 06:43:20;;;;;;;8.25;3.50;;;;;;;22.25;100.00;94401.94;5073253;28;20199;-76
2021/08/13 06:45:47;;;;;;;8.88;3.60;;;;;;;22.50;99.16;94396.00;5072993;28;20716;-75
2021/08/13 06:48:13;;;;;;;7.38;3.22;;;;;;;22.78;95.10;94402.72;5073360;28;20210;-75
2021/08/13 06:50:40;;;;;;;5.38;2.90;;;;;;;22.88;93.87;94408.13;5072749;28;20213;-76
2021/08/13 06:53:06;;;;;;;8.77;3.50;;;;;;;23.17;91.43;94410.34;5073193;28;20195;-75
2021/08/13 06:55:33;;;;;;;5.05;3.08;;;;;;;23.44;89.41;94419.97;5073187;28;20210;-76
2021/08/13 06:58:03;;;;;;;5.80;3.00;;;;;;;23.52;93.41;94416.78;5072947;28;20202;-75
2021/08/13 07:00:30;;;;;;;6.05;2.88;;;;;;;23.68;85.35;94419.44;5073269;28;20203;-76
2021/08/13 07:02:56;;;;;;;5.22;2.88;;;;;;;23.83;81.32;94422.13;5073136;28;20564;-76
2021/08/13 07:05:23;;;;;;;6.47;3.20;;;;;;;24.01;87.02;94418.94;5072988;28;20203;-76
2021/08/13 07:07:50;;;;;;;6.80;2.97;;;;;;;24.22;77.27;94418.91;5072909;28;20217;-75
2021/08/13 07:10:17;;;;;;;6.32;2.90;;;;;;;24.23;81.56;94423.19;5072870;28;20207;-76
2021/08/13 07:12:43;;;;;;;6.55;2.58;;;;;;;24.13;80.15;94420.50;5073112;28;20202;-76
2021/08/13 07:15:12;;;;;;;6.93;2.90;;;;;;;24.38;77.14;94412.47;5072974;28;20203;-75
2021/08/13 07:17:39;;;;;;;7.00;2.53;;;;;;;24.42;80.87;94422.59;5073019;28;20199;-76
2021/08/13 07:20:07;;;;;;;8.55;3.03;;;;;;;24.41;83.69;94421.00;5072963;28;20199;-75
2021/08/13 07:22:34;;;;;;;5.75;2.78;;;;;;;24.53;78.53;94421.47;5072790;28;20653;-75
2021/08/13 07:25:01;;;;;;;6.95;2.47;;;;;;;24.60;77.64;94426.56;5072721;28;20225;-76
2021/08/13 07:27:28;;;;;;;6.15;2.83;;;;;;;24.82;78.83;94426.22;5072846;28;20207;-76
2021/08/13 07:29:54;;;;;;;7.60;2.90;;;;;;;24.76;79.87;94428.09;5072899;28;20294;-76
2021/08/13 07:32:22;;;;;;;9.85;2.85;;;;;;;24.87;78.49;94427.00;5072809;28;20210;-75
2021/08/13 07:34:49;;;;;;;8.90;3.17;;;;;;;24.73;81.23;94423.31;5072823;28;20202;-76
2021/08/13 07:37:15;;;;;;;9.77;3.35;;;;;;;24.75;79.21;94415.84;5072705;28;20203;-76
2021/08/13 07:39:42;;;;;;;8.90;3.00;;;;;;;24.92;79.74;94420.84;5071703;28;20438;-75
2021/08/13 07:42:09;;;;;;;8.43;3.13;;;;;;;24.89;79.78;94416.84;5072797;28;20280;-73
2021/08/13 07:44:35;;;;;;;6.32;2.72;;;;;;;25.14;78.88;94417.78;5072509;28;20229;-75
2021/08/13 07:47:02;;;;;;;6.97;2.80;;;;;;;25.37;77.62;94426.25;5072584;28;20238;-75
2021/08/13 07:49:30;;;;;;;9.40;3.10;;;;;;;25.38;71.63;94427.81;5072211;28;20202;-76
2021/08/13 07:51:57;;;;;;;11.85;3.30;;;;;;;25.47;77.56;94426.97;5072541;28;20198;-75
2021/08/13 07:54:23;;;;;;;11.93;3.47;;;;;;;25.54;78.20;94431.22;5072698;28;20226;-75
2021/08/13 07:56:49;;;;;;;7.55;3.05;;;;;;;25.52;75.54;94430.69;5070709;28;20206;-75
2021/08/13 07:59:16;;;;;;;7.65;3.40;;;;;;;25.70;78.10;94427.34;5072648;28;20249;-75
2021/08/13 08:01:42;;;;;;;11.75;3.22;;;;;;;25.94;75.25;94430.09;5073440;28;20562;-76
2021/08/13 08:04:09;;;;;;;5.75;2.95;;;;;;;25.62;75.01;94428.72;5076283;28;20199;-76
2021/08/13 08:06:37;;;;;;;7.00;3.00;;;;;;;25.45;77.52;94434.47;5076083;28;20586;-75
2021/08/13 08:09:03;;;;;;;12.00;3.28;;;;;;;25.51;75.64;94437.09;5076432;28;20195;-76
2021/08/13 08:11:30;;;;;;;14.73;3.75;;;;;;;25.40;74.78;94444.41;5076351;28;20206;-76
2021/08/13 08:13:56;;;;;;;11.98;3.90;;;;;;;25.22;73.80;94437.78;5076269;28;20217;-75
2021/08/13 08:16:23;;;;;;;14.70;3.70;;;;;;;25.22;74.21;94440.47;5076188;28;20206;-75
2021/08/13 08:18:49;;;;;;;11.15;3.95;;;;;;;25.27;74.26;94453.84;5075075;28;20434;-75
2021/08/13 08:21:16;;;;;;;10.43;3.38;;;;;;;25.34;76.14;94454.31;5075915;28;20222;-76
2021/08/13 08:23:43;;;;;;;8.93;3.72;;;;;;;25.32;76.54;94456.47;5075721;28;20649;-75
2021/08/13 08:26:10;;;;;;;10.23;3.38;;;;;;;25.21;74.92;94449.56;5075786;28;20229;-75
2021/08/13 08:28:41;;;;;;;6.88;3.42;;;;;;;25.27;76.12;94453.84;5076010;28;20202;-76
2021/08/13 08:31:08;;;;;;;10.68;3.50;;;;;;;25.47;77.32;94443.00;5075916;28;20305;-75
2021/08/13 08:33:34;;;;;;;11.25;3.70;;;;;;;25.40;74.76;94447.09;5075798;28;20230;-76
2021/08/13 08:36:01;;;;;;;9.93;3.65;;;;;;;25.57;78.06;94444.81;5075471;28;20203;-76
2021/08/13 08:38:27;;;;;;;7.35;3.67;;;;;;;25.54;75.35;94457.94;5075831;28;20199;-76
2021/08/13 08:40:56;;;;;;;11.25;3.58;;;;;;;25.82;74.12;94465.22;5075744;28;20203;-75
2021/08/13 08:43:22;;;;;;;11.52;3.40;;;;;;;25.88;75.41;94474.03;5075503;28;20668;-75
2021/08/13 08:45:52;;;;;;;11.57;4.10;;;;;;;25.82;76.04;94483.97;5075305;28;20222;-76
2021/08/13 08:48:18;;;;;;;9.82;3.88;;;;;;;25.84;75.67;94494.38;5075437;28;20658;-76
2021/08/13 08:50:45;;;;;;;10.77;3.65;;;;;;;26.18;75.30;94493.59;5075570;28;20203;-75
2021/08/13 08:53:18;;;;;;;9.77;3.30;;;;;;;26.33;72.85;94498.03;5075551;28;20203;-76
2021/08/13 08:55:45;;;;;;;12.82;3.80;;;;;;;26.48;72.52;94497.91;5075465;28;20298;-76
2021/08/13 08:58:13;;;;;;;13.23;3.72;;;;;;;26.22;72.40;94490.09;5075426;28;20206;-76
2021/08/13 09:00:39;;;;;;;13.55;3.80;;;;;;;25.83;73.83;94498.94;5075325;28;20202;-76
2021/08/13 09:03:07;;;;;;;11.73;3.75;;;;;;;25.85;75.34;94494.09;5075167;28;20677;-76
2021/08/13 09:05:36;;;;;;;12.45;3.70;;;;;;;26.00;74.98;94492.44;5075360;28;20206;-75
2021/08/13 09:08:03;;;;;;;9.32;3.60;;;;;;;26.15;76.23;94488.84;5075187;28;20313;-75
2021/08/13 09:10:29;;;;;;;9.82;3.88;;;;;;;26.10;75.18;94488.88;5074414;28;20214;-76
2021/08/13 09:12:56;;;;;;;11.68;3.85;;;;;;;26.36;72.20;94484.09;5074783;28;20203;-77
2021/08/13 09:15:35;;;;;;;8.45;3.58;;;;;;;25.88;73.70;94486.59;5074752;28;20206;-77
2021/08/13 09:18:12;;;;;;;10.05;4.10;;;;;;;25.65;74.20;94487.03;5074352;28;20207;-79
2021/08/13 09:20:40;;;;;;;12.98;3.92;;;;;;;25.72;75.78;94488.59;5075023;28;20202;-79
2021/08/13 09:23:07;;;;;;;15.82;4.15;;;;;;;25.62;77.56;94492.13;5074872;28;20199;-78
2021/08/13 09:25:39;;;;;;;14.23;3.45;;;;;;;25.98;75.91;94495.38;5074887;28;20298;-79
2021/08/13 09:28:06;;;;;;;8.18;4.13;;;;;;;26.19;75.44;94492.53;5074635;28;20230;-78
2021/08/13 09:30:34;;;;;;;8.82;3.42;;;;;;;26.47;74.72;94496.31;5074888;28;20233;-79
2021/08/13 09:33:04;;;;;;;9.70;3.75;;;;;;;25.89;74.74;94499.69;5074925;28;20203;-78
2021/08/13 09:35:36;;;;;;;8.35;4.18;;;;;;;25.63;75.53;94499.06;5076033;28;20209;-79
2021/08/13 09:38:10;;;;;;;15.43;4.50;;;;;;;25.83;73.77;94496.28;5076389;28;20681;-78
2021/08/13 09:40:38;;;;;;;11.02;4.40;;;;;;;26.48;75.96;94491.72;5077901;28;20198;-77
2021/08/13 09:43:08;;;;;;;9.68;4.07;;;;;;;26.55;73.68;94490.34;5076778;28;20195;-78
2021/08/13 09:45:38;;;;;;;10.70;4.05;;;;;;;26.59;78.08;94488.66;5074605;28;20226;-79
2021/08/13 09:48:23;;;;;;;13.32;4.38;;;;;;;26.76;73.71;94492.81;5075063;28;20309;-77
2021/08/13 09:50:49;;;;;;;10.82;4.45;;;;;;;26.63;72.82;94488.09;5074563;28;20199;-78
2021/08/13 09:53:18;;;;;;;15.27;3.90;;;;;;;26.90;73.03;94492.94;5074472;28;20199;-79
2021/08/13 09:55:44;;;;;;;20.23;4.20;;;;;;;27.10;73.90;94492.69;5074529;28;20202;-79
2021/08/13 09:58:11;;;;;;;13.20;4.32;;;;;;;26.51;71.71;94496.53;5074411;28;20264;-80
2021/08/13 10:00:47;;;;;;;13.10;4.57;;;;;;;26.34;73.99;94487.03;5074161;28;20733;-80
2021/08/13 10:03:17;;;;;;;9.25;3.88;;;;;;;26.74;75.11;94490.41;5074023;28;20210;-79
2021/08/13 10:06:02;;;;;;;10.52;4.35;;;;;;;27.34;72.18;94491.09;5074224;28;20223;-80
2021/08/13 10:08:41;;;;;;;10.65;4.20;;;;;;;27.51;72.58;94488.72;5074258;28;20226;-80
2021/08/13 10:11:13;;;;;;;10.50;4.20;;;;;;;27.89;72.40;94491.38;5073934;28;20198;-79
2021/08/13 10:13:46;;;;;;;11.65;5.03;;;;;;;27.78;71.41;94495.31;5073840;28;20260;-79
2021/08/13 10:16:25;;;;;;;8.75;4.13;;;;;;;28.08;70.68;94494.09;5073951;28;20209;-79
2021/08/13 10:19:00;;;;;;;13.60;4.20;;;;;;;28.11;68.10;94493.50;5073681;28;20669;-79
2021/08/13 10:21:30;;;;;;;13.07;4.53;;;;;;;27.39;68.73;94493.72;5073647;28;20213;-79
2021/08/13 10:24:00;;;;;;;9.52;3.95;;;;;;;27.08;69.83;94486.00;5071740;28;20237;-79
2021/08/13 10:26:32;;;;;;;13.45;4.28;;;;;;;27.21;71.91;94490.72;5073523;28;20211;-79
2021/08/13 10:29:02;;;;;;;14.45;4.50;;;;;;;26.94;71.36;94484.03;5073705;28;20207;-79
2021/08/13 10:31:30;;;;;;;13.82;4.30;;;;;;;27.27;70.46;94492.22;5073710;28;20285;-79
2021/08/13 10:34:00;;;;;;;10.40;4.32;;;;;;;26.92;70.87;94491.56;5073386;28;20194;-80
2021/08/13 10:36:28;;;;;;;12.95;4.28;;;;;;;27.20;72.24;94494.47;5073312;28;20199;-80
2021/08/13 10:38:55;;;;;;;14.15;4.35;;;;;;;26.96;72.67;94494.47;5073390;28;20198;-78
2021/08/13 10:41:26;;;;;;;9.45;4.13;;;;;;;26.95;72.75;94493.69;5073342;28;20657;-77
2021/08/13 10:43:55;;;;;;;11.27;4.63;;;;;;;27.29;70.73;94497.31;5073328;28;20198;-77
2021/08/13 10:46:23;;;;;;;12.63;4.60;;;;;;;27.39;71.95;94499.09;5033638;28;20304;-76
2021/08/13 10:48:53;;;;;;;11.68;4.22;;;;;;;27.91;71.51;94493.78;5033358;28;20239;-77
2021/08/13 10:51:28;;;;;;;13.63;4.70;;;;;;;28.55;68.88;94496.78;5033277;28;20675;-77
2021/08/13 10:54:06;;;;;;;9.80;4.38;;;;;;;28.96;71.06;94490.66;5033452;28;20222;-78
2021/08/13 10:56:41;;;;;;;14.52;4.43;;;;;;;28.48;64.53;94497.19;5033449;28;20678;-78
2021/08/13 10:59:08;;;;;;;10.10;4.80;;;;;;;27.35;68.42;94487.34;5033241;28;20654;-79
2021/08/13 11:01:35;;;;;;;11.02;4.40;;;;;;;27.30;70.25;94486.31;5033216;28;20210;-76
2021/08/13 11:04:13;;;;;;;10.80;4.10;;;;;;;27.34;69.69;94496.47;5032978;28;20655;-78
2021/08/13 11:06:44;;;;;;;12.25;4.57;;;;;;;27.82;67.42;94496.34;5032801;28;20483;-77
2021/08/13 11:09:11;;;;;;;10.98;4.65;;;;;;;27.77;68.79;94489.16;5033400;28;20302;-76
2021/08/13 11:12:04;;;;;;;9.07;4.38;;;;;;;27.57;70.25;94476.03;5033196;28;20204;-77
2021/08/13 11:14:34;;;;;;;11.60;4.38;;;;;;;27.66;71.14;94469.72;5033070;28;20223;-77
2021/08/13 11:17:01;;;;;;;10.57;4.45;;;;;;;27.54;68.20;94474.72;5033069;28;20208;-77
2021/08/13 11:19:52;;;;;;;13.43;4.50;;;;;;;27.69;67.41;94477.22;5033008;28;20200;-77
2021/08/13 11:22:27;;;;;;;9.40;4.60;;;;;;;27.67;69.56;94479.34;5030466;28;20654;-77
2021/08/13 11:24:54;;;;;;;8.18;3.90;;;;;;;28.10;68.40;94485.75;5033404;28;20200;-77
2021/08/13 11:27:20;;;;;;;12.25;5.15;;;;;;;27.95;66.73;94484.88;5032758;28;20298;-77